sensor_id;sensor_type;location;lat;lon;timestamp;temperature;humidity
62573;DHT22;48626;51.678;5.806;2023-03-05T00:01:32;6.00;99.90
62573;DHT22;48626;51.678;5.806;2023-03-05T00:03:58;6.00;99.90
62573;DHT22;48626;51.678;5.806;2023-03-05T00:06:26;6.00;99.90
62573;DHT22;48626;51.678;5.806;2023-03-05T00:08:52;6.00;99.90
62573;DHT22;48626;51.678;5.806;2023-03-05T00:11:20;6.00;99.90
62573;DHT22;48626;51.678;5.806;2023-03-05T00:13:46;6.00;99.90
62573;DHT22;48626;51.678;5.806;2023-03-05T00:16:13;6.10;99.90
62573;DHT22;48626;51.678;5.806;2023-03-05T00:18:39;6.10;99.90
62573;DHT22;48626;51.678;5.806;2023-03-05T00:21:27;6.10;99.90
62573;DHT22;48626;51.678;5.806;2023-03-05T00:23:54;6.10;99.90
62573;DHT22;48626;51.678;5.806;2023-03-05T00:26:21;6.10;99.90
62573;DHT22;48626;51.678;5.806;2023-03-05T00:28:47;6.10;99.90
62573;DHT22;48626;51.678;5.806;2023-03-05T00:31:20;6.10;99.90
62573;DHT22;48626;51.678;5.806;2023-03-05T00:33:54;6.10;99.90
62573;DHT22;48626;51.678;5.806;2023-03-05T00:36:20;6.10;99.90
62573;DHT22;48626;51.678;5.806;2023-03-05T00:38:46;6.10;99.90
62573;DHT22;48626;51.678;5.806;2023-03-05T00:41:11;6.10;99.90
62573;DHT22;48626;51.678;5.806;2023-03-05T00:43:37;6.10;99.90
62573;DHT22;48626;51.678;5.806;2023-03-05T00:46:03;6.10;99.90
62573;DHT22;48626;51.678;5.806;2023-03-05T00:48:28;6.10;99.90
62573;DHT22;48626;51.678;5.806;2023-03-05T00:50:54;6.10;99.90
62573;DHT22;48626;51.678;5.806;2023-03-05T00:53:20;6.10;99.90
62573;DHT22;48626;51.678;5.806;2023-03-05T00:55:45;6.10;99.90
62573;DHT22;48626;51.678;5.806;2023-03-05T00:58:11;6.10;99.90
62573;DHT22;48626;51.678;5.806;2023-03-05T01:00:37;6.10;99.90
62573;DHT22;48626;51.678;5.806;2023-03-05T01:03:03;6.10;99.90
62573;DHT22;48626;51.678;5.806;2023-03-05T01:05:29;6.10;99.90
62573;DHT22;48626;51.678;5.806;2023-03-05T01:07:55;6.10;99.90
62573;DHT22;48626;51.678;5.806;2023-03-05T01:10:22;6.00;99.90
62573;DHT22;48626;51.678;5.806;2023-03-05T01:12:48;6.00;99.90
62573;DHT22;48626;51.678;5.806;2023-03-05T01:15:14;6.00;99.90
62573;DHT22;48626;51.678;5.806;2023-03-05T01:17:40;6.00;99.90
62573;DHT22;48626;51.678;5.806;2023-03-05T01:20:07;6.00;99.90
62573;DHT22;48626;51.678;5.806;2023-03-05T01:22:33;6.00;99.90
62573;DHT22;48626;51.678;5.806;2023-03-05T01:24:59;6.00;99.90
62573;DHT22;48626;51.678;5.806;2023-03-05T01:27:25;6.00;99.90
62573;DHT22;48626;51.678;5.806;2023-03-05T01:29:50;6.00;99.90
62573;DHT22;48626;51.678;5.806;2023-03-05T01:32:16;5.90;99.90
62573;DHT22;48626;51.678;5.806;2023-03-05T01:34:41;5.90;99.90
62573;DHT22;48626;51.678;5.806;2023-03-05T01:37:08;5.80;99.90
62573;DHT22;48626;51.678;5.806;2023-03-05T01:39:34;5.80;99.90
62573;DHT22;48626;51.678;5.806;2023-03-05T01:42:01;5.80;99.90
62573;DHT22;48626;51.678;5.806;2023-03-05T01:44:27;5.80;99.90
62573;DHT22;48626;51.678;5.806;2023-03-05T01:46:53;5.80;99.90
62573;DHT22;48626;51.678;5.806;2023-03-05T01:49:45;5.70;99.90
62573;DHT22;48626;51.678;5.806;2023-03-05T01:52:11;5.80;99.90
62573;DHT22;48626;51.678;5.806;2023-03-05T01:55:00;5.70;99.90
62573;DHT22;48626;51.678;5.806;2023-03-05T01:57:44;5.80;99.90
62573;DHT22;48626;51.678;5.806;2023-03-05T02:00:24;5.70;99.90
62573;DHT22;48626;51.678;5.806;2023-03-05T02:02:50;5.80;99.90
62573;DHT22;48626;51.678;5.806;2023-03-05T02:05:25;5.70;99.90
62573;DHT22;48626;51.678;5.806;2023-03-05T02:07:58;5.70;99.90
62573;DHT22;48626;51.678;5.806;2023-03-05T02:10:34;5.70;99.90
62573;DHT22;48626;51.678;5.806;2023-03-05T02:13:04;5.70;99.90
62573;DHT22;48626;51.678;5.806;2023-03-05T02:15:31;5.70;99.90
62573;DHT22;48626;51.678;5.806;2023-03-05T02:17:58;5.70;99.90
62573;DHT22;48626;51.678;5.806;2023-03-05T02:20:29;5.70;99.90
62573;DHT22;48626;51.678;5.806;2023-03-05T02:22:55;5.60;99.90
62573;DHT22;48626;51.678;5.806;2023-03-05T02:25:26;5.60;99.90
62573;DHT22;48626;51.678;5.806;2023-03-05T02:30:18;5.60;99.90
62573;DHT22;48626;51.678;5.806;2023-03-05T02:32:44;5.70;99.90
62573;DHT22;48626;51.678;5.806;2023-03-05T02:35:10;5.70;99.90
62573;DHT22;48626;51.678;5.806;2023-03-05T02:37:35;5.70;99.90
62573;DHT22;48626;51.678;5.806;2023-03-05T02:40:01;5.70;99.90
62573;DHT22;48626;51.678;5.806;2023-03-05T02:42:27;5.70;99.90
62573;DHT22;48626;51.678;5.806;2023-03-05T02:44:55;5.70;99.90
62573;DHT22;48626;51.678;5.806;2023-03-05T02:47:20;5.70;99.90
62573;DHT22;48626;51.678;5.806;2023-03-05T02:49:46;5.60;99.90
62573;DHT22;48626;51.678;5.806;2023-03-05T02:52:12;5.60;99.90
62573;DHT22;48626;51.678;5.806;2023-03-05T02:54:37;5.60;99.90
62573;DHT22;48626;51.678;5.806;2023-03-05T02:57:03;5.60;99.90
62573;DHT22;48626;51.678;5.806;2023-03-05T02:59:29;5.60;99.90
62573;DHT22;48626;51.678;5.806;2023-03-05T03:01:54;5.60;99.90
62573;DHT22;48626;51.678;5.806;2023-03-05T03:04:20;5.60;99.90
62573;DHT22;48626;51.678;5.806;2023-03-05T03:06:45;5.50;99.90
62573;DHT22;48626;51.678;5.806;2023-03-05T03:09:11;5.50;99.90
62573;DHT22;48626;51.678;5.806;2023-03-05T03:11:37;5.50;99.90
62573;DHT22;48626;51.678;5.806;2023-03-05T03:14:02;5.50;99.90
62573;DHT22;48626;51.678;5.806;2023-03-05T03:16:28;5.50;99.90
62573;DHT22;48626;51.678;5.806;2023-03-05T03:18:53;5.50;99.90
62573;DHT22;48626;51.678;5.806;2023-03-05T03:21:22;5.50;99.90
62573;DHT22;48626;51.678;5.806;2023-03-05T03:23:48;5.50;99.90
62573;DHT22;48626;51.678;5.806;2023-03-05T03:26:14;5.50;99.90
62573;DHT22;48626;51.678;5.806;2023-03-05T03:28:39;5.50;99.90
62573;DHT22;48626;51.678;5.806;2023-03-05T03:31:05;5.50;99.90
62573;DHT22;48626;51.678;5.806;2023-03-05T03:33:31;5.50;99.90
62573;DHT22;48626;51.678;5.806;2023-03-05T03:35:57;5.50;99.90
62573;DHT22;48626;51.678;5.806;2023-03-05T03:38:23;5.50;99.90
62573;DHT22;48626;51.678;5.806;2023-03-05T03:40:48;5.50;99.90
62573;DHT22;48626;51.678;5.806;2023-03-05T03:43:14;5.50;99.90
62573;DHT22;48626;51.678;5.806;2023-03-05T03:45:41;5.50;99.90
62573;DHT22;48626;51.678;5.806;2023-03-05T03:48:08;5.50;99.90
62573;DHT22;48626;51.678;5.806;2023-03-05T03:50:36;5.50;99.90
62573;DHT22;48626;51.678;5.806;2023-03-05T03:53:02;5.50;99.90
62573;DHT22;48626;51.678;5.806;2023-03-05T03:55:28;5.50;99.90
62573;DHT22;48626;51.678;5.806;2023-03-05T03:57:53;5.50;99.90
62573;DHT22;48626;51.678;5.806;2023-03-05T04:00:19;5.40;99.90
62573;DHT22;48626;51.678;5.806;2023-03-05T04:02:45;5.40;99.90
62573;DHT22;48626;51.678;5.806;2023-03-05T04:05:10;5.40;99.90
62573;DHT22;48626;51.678;5.806;2023-03-05T04:07:36;5.40;99.90
62573;DHT22;48626;51.678;5.806;2023-03-05T04:10:03;5.40;99.90
62573;DHT22;48626;51.678;5.806;2023-03-05T04:12:28;5.40;99.90
62573;DHT22;48626;51.678;5.806;2023-03-05T04:14:54;5.40;99.90
62573;DHT22;48626;51.678;5.806;2023-03-05T04:17:20;5.40;99.90
62573;DHT22;48626;51.678;5.806;2023-03-05T04:19:45;5.30;99.90
62573;DHT22;48626;51.678;5.806;2023-03-05T04:22:16;5.40;99.90
62573;DHT22;48626;51.678;5.806;2023-03-05T04:24:42;5.30;99.90
62573;DHT22;48626;51.678;5.806;2023-03-05T04:27:09;5.30;99.90
62573;DHT22;48626;51.678;5.806;2023-03-05T04:29:35;5.30;99.90
62573;DHT22;48626;51.678;5.806;2023-03-05T04:32:01;5.30;99.90
62573;DHT22;48626;51.678;5.806;2023-03-05T04:34:27;5.30;99.90
62573;DHT22;48626;51.678;5.806;2023-03-05T04:36:52;5.30;99.90
62573;DHT22;48626;51.678;5.806;2023-03-05T04:39:18;5.30;99.90
62573;DHT22;48626;51.678;5.806;2023-03-05T04:41:46;5.30;99.90
62573;DHT22;48626;51.678;5.806;2023-03-05T04:44:12;5.30;99.90
62573;DHT22;48626;51.678;5.806;2023-03-05T04:46:38;5.30;99.90
62573;DHT22;48626;51.678;5.806;2023-03-05T04:49:03;5.30;99.90
62573;DHT22;48626;51.678;5.806;2023-03-05T04:51:29;5.30;99.90
62573;DHT22;48626;51.678;5.806;2023-03-05T04:53:55;5.30;99.90
62573;DHT22;48626;51.678;5.806;2023-03-05T04:56:20;5.30;99.90
62573;DHT22;48626;51.678;5.806;2023-03-05T04:58:46;5.30;99.90
62573;DHT22;48626;51.678;5.806;2023-03-05T05:01:12;5.30;99.90
62573;DHT22;48626;51.678;5.806;2023-03-05T05:03:38;5.30;99.90
62573;DHT22;48626;51.678;5.806;2023-03-05T05:06:03;5.30;99.90
62573;DHT22;48626;51.678;5.806;2023-03-05T05:08:29;5.30;99.90
62573;DHT22;48626;51.678;5.806;2023-03-05T05:11:06;5.30;99.90
62573;DHT22;48626;51.678;5.806;2023-03-05T05:13:33;5.30;99.90
62573;DHT22;48626;51.678;5.806;2023-03-05T05:15:59;5.30;99.90
62573;DHT22;48626;51.678;5.806;2023-03-05T05:18:24;5.30;99.90
62573;DHT22;48626;51.678;5.806;2023-03-05T05:20:50;5.30;99.90
62573;DHT22;48626;51.678;5.806;2023-03-05T05:23:17;5.30;99.90
62573;DHT22;48626;51.678;5.806;2023-03-05T05:25:43;5.30;99.90
62573;DHT22;48626;51.678;5.806;2023-03-05T05:28:10;5.30;99.90
62573;DHT22;48626;51.678;5.806;2023-03-05T05:30:36;5.30;99.90
62573;DHT22;48626;51.678;5.806;2023-03-05T05:33:02;5.30;99.90
62573;DHT22;48626;51.678;5.806;2023-03-05T05:35:28;5.30;99.90
62573;DHT22;48626;51.678;5.806;2023-03-05T05:37:53;5.20;99.90
62573;DHT22;48626;51.678;5.806;2023-03-05T05:40:19;5.30;99.90
62573;DHT22;48626;51.678;5.806;2023-03-05T05:42:45;5.30;99.90
62573;DHT22;48626;51.678;5.806;2023-03-05T05:45:11;5.30;99.90
62573;DHT22;48626;51.678;5.806;2023-03-05T05:47:37;5.20;99.90
62573;DHT22;48626;51.678;5.806;2023-03-05T05:50:04;5.20;99.90
62573;DHT22;48626;51.678;5.806;2023-03-05T05:52:30;5.20;99.90
62573;DHT22;48626;51.678;5.806;2023-03-05T05:54:55;5.20;99.90
62573;DHT22;48626;51.678;5.806;2023-03-05T05:57:21;5.20;99.90
62573;DHT22;48626;51.678;5.806;2023-03-05T05:59:47;5.20;99.90
62573;DHT22;48626;51.678;5.806;2023-03-05T06:02:12;5.20;99.90
62573;DHT22;48626;51.678;5.806;2023-03-05T06:04:38;5.30;99.90
62573;DHT22;48626;51.678;5.806;2023-03-05T06:07:05;5.30;99.90
62573;DHT22;48626;51.678;5.806;2023-03-05T06:09:30;5.30;99.90
62573;DHT22;48626;51.678;5.806;2023-03-05T06:11:56;5.30;99.90
62573;DHT22;48626;51.678;5.806;2023-03-05T06:14:22;5.20;99.90
62573;DHT22;48626;51.678;5.806;2023-03-05T06:16:47;5.20;99.90
62573;DHT22;48626;51.678;5.806;2023-03-05T06:19:14;5.20;99.90
62573;DHT22;48626;51.678;5.806;2023-03-05T06:21:40;5.20;99.90
62573;DHT22;48626;51.678;5.806;2023-03-05T06:24:07;5.20;99.90
62573;DHT22;48626;51.678;5.806;2023-03-05T06:26:33;5.20;99.90
62573;DHT22;48626;51.678;5.806;2023-03-05T06:28:59;5.20;99.90
62573;DHT22;48626;51.678;5.806;2023-03-05T06:31:27;5.20;99.90
62573;DHT22;48626;51.678;5.806;2023-03-05T06:33:54;5.10;99.90
62573;DHT22;48626;51.678;5.806;2023-03-05T06:36:22;5.20;99.90
62573;DHT22;48626;51.678;5.806;2023-03-05T06:38:49;5.20;99.90
62573;DHT22;48626;51.678;5.806;2023-03-05T06:41:18;5.20;99.90
62573;DHT22;48626;51.678;5.806;2023-03-05T06:43:45;5.20;99.90
62573;DHT22;48626;51.678;5.806;2023-03-05T06:46:16;5.20;99.90
62573;DHT22;48626;51.678;5.806;2023-03-05T06:48:43;5.30;99.90
62573;DHT22;48626;51.678;5.806;2023-03-05T06:51:30;5.30;99.90
62573;DHT22;48626;51.678;5.806;2023-03-05T06:53:59;5.30;99.90
62573;DHT22;48626;51.678;5.806;2023-03-05T06:56:25;5.30;99.90
62573;DHT22;48626;51.678;5.806;2023-03-05T06:58:52;5.30;99.90
62573;DHT22;48626;51.678;5.806;2023-03-05T07:01:19;5.30;99.90
62573;DHT22;48626;51.678;5.806;2023-03-05T07:03:51;5.30;99.90
62573;DHT22;48626;51.678;5.806;2023-03-05T07:06:17;5.30;99.90
62573;DHT22;48626;51.678;5.806;2023-03-05T07:08:43;5.40;99.90
62573;DHT22;48626;51.678;5.806;2023-03-05T07:11:14;5.40;99.90
62573;DHT22;48626;51.678;5.806;2023-03-05T07:13:41;5.40;99.90
62573;DHT22;48626;51.678;5.806;2023-03-05T07:16:09;5.40;99.90
62573;DHT22;48626;51.678;5.806;2023-03-05T07:18:35;5.50;99.90
62573;DHT22;48626;51.678;5.806;2023-03-05T07:21:02;5.50;99.90
62573;DHT22;48626;51.678;5.806;2023-03-05T07:23:28;5.50;99.90
62573;DHT22;48626;51.678;5.806;2023-03-05T07:25:54;5.60;99.90
62573;DHT22;48626;51.678;5.806;2023-03-05T07:28:19;5.60;99.90
62573;DHT22;48626;51.678;5.806;2023-03-05T07:30:55;5.60;99.90
62573;DHT22;48626;51.678;5.806;2023-03-05T07:33:20;5.70;99.90
62573;DHT22;48626;51.678;5.806;2023-03-05T07:35:46;5.70;99.90
62573;DHT22;48626;51.678;5.806;2023-03-05T07:38:12;5.70;99.90
62573;DHT22;48626;51.678;5.806;2023-03-05T07:40:37;5.70;99.90
62573;DHT22;48626;51.678;5.806;2023-03-05T07:43:03;5.80;99.90
62573;DHT22;48626;51.678;5.806;2023-03-05T07:45:28;5.90;99.90
62573;DHT22;48626;51.678;5.806;2023-03-05T07:47:54;5.90;99.90
62573;DHT22;48626;51.678;5.806;2023-03-05T07:50:21;6.00;99.90
62573;DHT22;48626;51.678;5.806;2023-03-05T07:52:46;6.00;99.90
62573;DHT22;48626;51.678;5.806;2023-03-05T07:55:12;6.00;99.90
62573;DHT22;48626;51.678;5.806;2023-03-05T07:57:38;6.00;99.90
62573;DHT22;48626;51.678;5.806;2023-03-05T08:00:05;6.10;99.90
62573;DHT22;48626;51.678;5.806;2023-03-05T08:02:31;6.10;99.90
62573;DHT22;48626;51.678;5.806;2023-03-05T08:04:57;6.20;99.90
62573;DHT22;48626;51.678;5.806;2023-03-05T08:07:22;6.20;99.90
62573;DHT22;48626;51.678;5.806;2023-03-05T08:09:48;6.30;99.90
62573;DHT22;48626;51.678;5.806;2023-03-05T08:12:14;6.40;99.90
62573;DHT22;48626;51.678;5.806;2023-03-05T08:14:39;6.40;99.90
62573;DHT22;48626;51.678;5.806;2023-03-05T08:17:05;6.50;99.90
62573;DHT22;48626;51.678;5.806;2023-03-05T08:19:32;6.50;99.90
62573;DHT22;48626;51.678;5.806;2023-03-05T08:21:58;6.60;99.90
62573;DHT22;48626;51.678;5.806;2023-03-05T08:24:23;6.60;99.90
62573;DHT22;48626;51.678;5.806;2023-03-05T08:26:54;6.70;99.90
62573;DHT22;48626;51.678;5.806;2023-03-05T08:29:21;6.70;99.90
62573;DHT22;48626;51.678;5.806;2023-03-05T08:31:47;6.60;99.90
62573;DHT22;48626;51.678;5.806;2023-03-05T08:34:12;6.60;99.90
62573;DHT22;48626;51.678;5.806;2023-03-05T08:36:38;6.60;99.90
62573;DHT22;48626;51.678;5.806;2023-03-05T08:39:04;6.60;99.90
62573;DHT22;48626;51.678;5.806;2023-03-05T08:41:31;6.60;99.90
62573;DHT22;48626;51.678;5.806;2023-03-05T08:43:57;6.70;99.90
62573;DHT22;48626;51.678;5.806;2023-03-05T08:46:23;6.60;99.90
62573;DHT22;48626;51.678;5.806;2023-03-05T08:48:48;6.60;99.90
62573;DHT22;48626;51.678;5.806;2023-03-05T08:51:22;6.70;99.90
62573;DHT22;48626;51.678;5.806;2023-03-05T08:53:53;6.80;99.90
62573;DHT22;48626;51.678;5.806;2023-03-05T08:56:19;6.90;99.90
62573;DHT22;48626;51.678;5.806;2023-03-05T08:58:45;7.00;99.90
62573;DHT22;48626;51.678;5.806;2023-03-05T09:01:13;7.10;99.90
62573;DHT22;48626;51.678;5.806;2023-03-05T09:03:39;7.30;99.90
62573;DHT22;48626;51.678;5.806;2023-03-05T09:06:06;7.40;99.90
62573;DHT22;48626;51.678;5.806;2023-03-05T09:08:34;7.60;99.90
62573;DHT22;48626;51.678;5.806;2023-03-05T09:11:01;7.70;99.90
62573;DHT22;48626;51.678;5.806;2023-03-05T09:13:27;7.70;99.90
62573;DHT22;48626;51.678;5.806;2023-03-05T09:16:04;7.80;99.90
62573;DHT22;48626;51.678;5.806;2023-03-05T09:18:31;7.90;99.90
62573;DHT22;48626;51.678;5.806;2023-03-05T09:20:57;7.90;99.90
62573;DHT22;48626;51.678;5.806;2023-03-05T09:23:23;8.00;99.90
62573;DHT22;48626;51.678;5.806;2023-03-05T09:25:48;8.00;99.90
62573;DHT22;48626;51.678;5.806;2023-03-05T09:28:15;8.00;99.90
62573;DHT22;48626;51.678;5.806;2023-03-05T09:30:40;8.00;99.90
62573;DHT22;48626;51.678;5.806;2023-03-05T09:33:06;8.10;99.90
62573;DHT22;48626;51.678;5.806;2023-03-05T09:35:36;8.10;99.90
62573;DHT22;48626;51.678;5.806;2023-03-05T09:38:02;8.00;99.90
62573;DHT22;48626;51.678;5.806;2023-03-05T09:40:46;7.90;99.90
62573;DHT22;48626;51.678;5.806;2023-03-05T09:51:17;7.80;99.90
62573;DHT22;48626;51.678;5.806;2023-03-05T09:53:56;7.80;99.90
62573;DHT22;48626;51.678;5.806;2023-03-05T09:56:41;7.90;99.90
62573;DHT22;48626;51.678;5.806;2023-03-05T09:59:22;8.10;99.90
62573;DHT22;48626;51.678;5.806;2023-03-05T10:01:56;8.20;99.90
62573;DHT22;48626;51.678;5.806;2023-03-05T10:04:42;8.20;99.90
62573;DHT22;48626;51.678;5.806;2023-03-05T10:07:20;8.20;99.90
62573;DHT22;48626;51.678;5.806;2023-03-05T10:09:56;8.20;99.90
62573;DHT22;48626;51.678;5.806;2023-03-05T10:14:57;8.10;99.90
62573;DHT22;48626;51.678;5.806;2023-03-05T10:28:24;7.40;99.90
62573;DHT22;48626;51.678;5.806;2023-03-05T10:34:04;7.00;99.90
62573;DHT22;48626;51.678;5.806;2023-03-05T10:39:32;6.70;99.90
62573;DHT22;48626;51.678;5.806;2023-03-05T10:42:24;6.80;99.90
62573;DHT22;48626;51.678;5.806;2023-03-05T10:44:57;6.90;99.90
62573;DHT22;48626;51.678;5.806;2023-03-05T10:47:44;7.00;99.90
62573;DHT22;48626;51.678;5.806;2023-03-05T10:50:23;7.10;99.90
62573;DHT22;48626;51.678;5.806;2023-03-05T10:55:39;7.40;99.90
62573;DHT22;48626;51.678;5.806;2023-03-05T10:58:16;7.70;99.90
62573;DHT22;48626;51.678;5.806;2023-03-05T11:01:02;7.80;99.90
62573;DHT22;48626;51.678;5.806;2023-03-05T11:06:29;8.20;99.90
62573;DHT22;48626;51.678;5.806;2023-03-05T11:09:15;8.30;99.90
62573;DHT22;48626;51.678;5.806;2023-03-05T11:11:40;8.40;99.90
62573;DHT22;48626;51.678;5.806;2023-03-05T11:14:24;8.50;99.90
62573;DHT22;48626;51.678;5.806;2023-03-05T11:16:55;8.60;99.90
62573;DHT22;48626;51.678;5.806;2023-03-05T11:19:28;8.70;99.90
62573;DHT22;48626;51.678;5.806;2023-03-05T11:24:36;9.20;99.90
62573;DHT22;48626;51.678;5.806;2023-03-05T11:27:19;9.20;99.90
62573;DHT22;48626;51.678;5.806;2023-03-05T11:29:49;9.30;99.90
62573;DHT22;48626;51.678;5.806;2023-03-05T11:32:23;9.20;99.90
62573;DHT22;48626;51.678;5.806;2023-03-05T11:34:49;9.30;99.90
62573;DHT22;48626;51.678;5.806;2023-03-05T11:37:25;9.30;99.90
62573;DHT22;48626;51.678;5.806;2023-03-05T11:42:37;9.30;99.90
62573;DHT22;48626;51.678;5.806;2023-03-05T11:45:05;9.30;99.90
62573;DHT22;48626;51.678;5.806;2023-03-05T11:52:51;9.50;99.90
62573;DHT22;48626;51.678;5.806;2023-03-05T11:55:45;9.40;99.90
62573;DHT22;48626;51.678;5.806;2023-03-05T12:01:19;9.50;99.90
62573;DHT22;48626;51.678;5.806;2023-03-05T12:03:45;9.60;99.90
62573;DHT22;48626;51.678;5.806;2023-03-05T12:08:59;9.70;99.90
62573;DHT22;48626;51.678;5.806;2023-03-05T12:11:30;9.80;99.90
62573;DHT22;48626;51.678;5.806;2023-03-05T12:14:14;9.90;99.90
62573;DHT22;48626;51.678;5.806;2023-03-05T12:16:47;10.00;99.90
62573;DHT22;48626;51.678;5.806;2023-03-05T12:22:04;10.10;99.90
62573;DHT22;48626;51.678;5.806;2023-03-05T12:24:38;10.20;99.90
62573;DHT22;48626;51.678;5.806;2023-03-05T12:27:07;10.30;99.90
62573;DHT22;48626;51.678;5.806;2023-03-05T12:32:05;10.50;99.90
62573;DHT22;48626;51.678;5.806;2023-03-05T12:39:58;10.50;99.90
62573;DHT22;48626;51.678;5.806;2023-03-05T12:47:41;11.90;99.90
62573;DHT22;48626;51.678;5.806;2023-03-05T12:52:52;11.90;99.90
62573;DHT22;48626;51.678;5.806;2023-03-05T12:56:10;11.80;99.90
62573;DHT22;48626;51.678;5.806;2023-03-05T12:58:44;11.60;99.90
62573;DHT22;48626;51.678;5.806;2023-03-05T13:03:44;11.40;99.90
62573;DHT22;48626;51.678;5.806;2023-03-05T13:11:46;11.20;99.90
62573;DHT22;48626;51.678;5.806;2023-03-05T13:14:33;11.10;99.90
62573;DHT22;48626;51.678;5.806;2023-03-05T13:17:01;11.00;99.90
62573;DHT22;48626;51.678;5.806;2023-03-05T13:19:27;11.00;99.90
62573;DHT22;48626;51.678;5.806;2023-03-05T13:22:03;10.90;99.90
62573;DHT22;48626;51.678;5.806;2023-03-05T13:24:29;11.00;99.90
62573;DHT22;48626;51.678;5.806;2023-03-05T13:26:55;11.00;99.90
62573;DHT22;48626;51.678;5.806;2023-03-05T13:29:23;11.00;99.90
62573;DHT22;48626;51.678;5.806;2023-03-05T13:32:16;10.90;99.90
62573;DHT22;48626;51.678;5.806;2023-03-05T13:34:45;10.90;99.90
62573;DHT22;48626;51.678;5.806;2023-03-05T13:37:24;10.80;99.90
62573;DHT22;48626;51.678;5.806;2023-03-05T13:40:18;10.80;99.90
62573;DHT22;48626;51.678;5.806;2023-03-05T13:42:44;10.70;99.90
62573;DHT22;48626;51.678;5.806;2023-03-05T13:45:28;10.70;99.90
62573;DHT22;48626;51.678;5.806;2023-03-05T13:47:59;10.70;99.90
62573;DHT22;48626;51.678;5.806;2023-03-05T13:52:51;10.60;99.90
62573;DHT22;48626;51.678;5.806;2023-03-05T13:55:17;10.60;99.90
62573;DHT22;48626;51.678;5.806;2023-03-05T13:57:45;10.60;99.90
62573;DHT22;48626;51.678;5.806;2023-03-05T14:02:50;10.50;99.90
62573;DHT22;48626;51.678;5.806;2023-03-05T14:05:16;10.50;99.90
62573;DHT22;48626;51.678;5.806;2023-03-05T14:07:48;10.40;99.90
62573;DHT22;48626;51.678;5.806;2023-03-05T14:13:00;10.60;99.90
62573;DHT22;48626;51.678;5.806;2023-03-05T14:15:33;10.70;99.90
62573;DHT22;48626;51.678;5.806;2023-03-05T14:20:56;10.90;99.90
62573;DHT22;48626;51.678;5.806;2023-03-05T14:23:30;10.90;99.90
62573;DHT22;48626;51.678;5.806;2023-03-05T14:29:02;10.80;99.90
62573;DHT22;48626;51.678;5.806;2023-03-05T14:31:30;10.80;99.90
62573;DHT22;48626;51.678;5.806;2023-03-05T14:34:05;10.70;99.90
62573;DHT22;48626;51.678;5.806;2023-03-05T14:36:31;10.60;99.90
62573;DHT22;48626;51.678;5.806;2023-03-05T14:38:58;10.60;99.90
62573;DHT22;48626;51.678;5.806;2023-03-05T14:41:41;10.70;99.90
62573;DHT22;48626;51.678;5.806;2023-03-05T14:44:14;10.70;99.90
62573;DHT22;48626;51.678;5.806;2023-03-05T14:46:42;10.60;99.90
62573;DHT22;48626;51.678;5.806;2023-03-05T14:49:08;10.60;99.90
62573;DHT22;48626;51.678;5.806;2023-03-05T14:51:38;10.60;99.90
62573;DHT22;48626;51.678;5.806;2023-03-05T14:54:05;10.50;99.90
62573;DHT22;48626;51.678;5.806;2023-03-05T14:56:31;10.50;99.90
62573;DHT22;48626;51.678;5.806;2023-03-05T14:58:58;10.40;99.90
62573;DHT22;48626;51.678;5.806;2023-03-05T15:01:24;10.30;99.90
62573;DHT22;48626;51.678;5.806;2023-03-05T15:03:50;10.30;99.90
62573;DHT22;48626;51.678;5.806;2023-03-05T15:06:24;10.20;99.90
62573;DHT22;48626;51.678;5.806;2023-03-05T15:08:52;10.20;99.90
62573;DHT22;48626;51.678;5.806;2023-03-05T15:11:17;10.20;99.90
62573;DHT22;48626;51.678;5.806;2023-03-05T15:13:43;10.20;99.90
62573;DHT22;48626;51.678;5.806;2023-03-05T15:16:12;10.20;99.90
62573;DHT22;48626;51.678;5.806;2023-03-05T15:18:39;10.20;99.90
62573;DHT22;48626;51.678;5.806;2023-03-05T15:21:05;10.10;99.90
62573;DHT22;48626;51.678;5.806;2023-03-05T15:23:30;10.20;99.90
62573;DHT22;48626;51.678;5.806;2023-03-05T15:26:01;10.10;99.90
62573;DHT22;48626;51.678;5.806;2023-03-05T15:28:30;10.10;99.90
62573;DHT22;48626;51.678;5.806;2023-03-05T15:30:56;10.00;99.90
62573;DHT22;48626;51.678;5.806;2023-03-05T15:33:22;9.90;99.90
62573;DHT22;48626;51.678;5.806;2023-03-05T15:35:47;9.80;99.90
62573;DHT22;48626;51.678;5.806;2023-03-05T15:38:13;9.70;99.90
62573;DHT22;48626;51.678;5.806;2023-03-05T15:40:40;9.60;99.90
62573;DHT22;48626;51.678;5.806;2023-03-05T15:43:08;9.60;99.90
62573;DHT22;48626;51.678;5.806;2023-03-05T15:45:34;9.50;99.90
62573;DHT22;48626;51.678;5.806;2023-03-05T15:48:00;9.40;99.90
62573;DHT22;48626;51.678;5.806;2023-03-05T15:50:25;9.30;99.90
62573;DHT22;48626;51.678;5.806;2023-03-05T15:52:52;9.30;99.90
62573;DHT22;48626;51.678;5.806;2023-03-05T15:55:17;9.30;99.90
62573;DHT22;48626;51.678;5.806;2023-03-05T15:57:45;9.20;99.90
62573;DHT22;48626;51.678;5.806;2023-03-05T16:00:13;9.20;99.90
62573;DHT22;48626;51.678;5.806;2023-03-05T16:02:39;9.10;99.90
62573;DHT22;48626;51.678;5.806;2023-03-05T16:05:05;9.00;99.90
62573;DHT22;48626;51.678;5.806;2023-03-05T16:07:33;9.00;99.90
62573;DHT22;48626;51.678;5.806;2023-03-05T16:10:00;8.90;99.90
62573;DHT22;48626;51.678;5.806;2023-03-05T16:12:29;8.90;99.90
62573;DHT22;48626;51.678;5.806;2023-03-05T16:14:55;8.90;99.90
62573;DHT22;48626;51.678;5.806;2023-03-05T16:17:22;8.80;99.90
62573;DHT22;48626;51.678;5.806;2023-03-05T16:19:52;8.80;99.90
62573;DHT22;48626;51.678;5.806;2023-03-05T16:22:19;8.70;99.90
62573;DHT22;48626;51.678;5.806;2023-03-05T16:24:44;8.70;99.90
62573;DHT22;48626;51.678;5.806;2023-03-05T16:27:10;8.70;99.90
62573;DHT22;48626;51.678;5.806;2023-03-05T16:29:36;8.70;99.90
62573;DHT22;48626;51.678;5.806;2023-03-05T16:32:03;8.60;99.90
62573;DHT22;48626;51.678;5.806;2023-03-05T16:34:29;8.60;99.90
62573;DHT22;48626;51.678;5.806;2023-03-05T16:36:55;8.60;99.90
62573;DHT22;48626;51.678;5.806;2023-03-05T16:39:21;8.50;99.90
62573;DHT22;48626;51.678;5.806;2023-03-05T16:41:48;8.40;99.90
62573;DHT22;48626;51.678;5.806;2023-03-05T16:44:14;8.40;99.90
62573;DHT22;48626;51.678;5.806;2023-03-05T16:46:39;8.40;99.90
62573;DHT22;48626;51.678;5.806;2023-03-05T16:49:06;8.40;99.90
62573;DHT22;48626;51.678;5.806;2023-03-05T16:51:33;8.40;99.90
62573;DHT22;48626;51.678;5.806;2023-03-05T16:53:59;8.30;99.90
62573;DHT22;48626;51.678;5.806;2023-03-05T16:56:24;8.30;99.90
62573;DHT22;48626;51.678;5.806;2023-03-05T16:58:52;8.20;99.90
62573;DHT22;48626;51.678;5.806;2023-03-05T17:01:19;8.20;99.90
62573;DHT22;48626;51.678;5.806;2023-03-05T17:03:45;8.20;99.90
62573;DHT22;48626;51.678;5.806;2023-03-05T17:06:17;8.20;99.90
62573;DHT22;48626;51.678;5.806;2023-03-05T17:08:44;8.10;99.90
62573;DHT22;48626;51.678;5.806;2023-03-05T17:11:10;8.10;99.90
62573;DHT22;48626;51.678;5.806;2023-03-05T17:13:36;8.10;99.90
62573;DHT22;48626;51.678;5.806;2023-03-05T17:16:03;8.00;99.90
62573;DHT22;48626;51.678;5.806;2023-03-05T17:18:30;8.00;99.90
62573;DHT22;48626;51.678;5.806;2023-03-05T17:20:55;7.90;99.90
62573;DHT22;48626;51.678;5.806;2023-03-05T17:23:21;7.90;99.90